Terminal Aerodrome Forecast
Issued by NWS Sterling, VA

Current Version | Previous Version | Graphics & Text | Print | Product List | Glossary On
Versions: 1 2 3 4 5 6 7 8 9 10 11 12 13 14 15 16 17 18 19 20 21 22 23 24 25 26 27 28 29 30
000
FTUS41 KLWX 032347
TAFIAD
TAF
KIAD 032347Z 0400/0506 17009G15KT P6SM -RA OVC023
      TEMPO 0400/0401 5SM -FZDZ OVC020
     FM040100 20010KT 5SM BR OVC010
     FM041000 25005KT 2SM -RA BR OVC008
     FM050300 36005KT 1SM -RASN OVC008=

USA.gov is the U.S. government's official web portal to all federal, state and local government web resources and services.